Time;durP1;ratioP1;P1;durP2;ratioP2;P2;SDS_P1;SDS_P2;PMS_P1;PMS_P2;Temp;Humidity;BMP_temperature;BMP_pressure;BME280_temperature;BME280_humidity;BME280_pressure;Samples;Min_cycle;Max_cycle;Signal;HPM_P1;HPM_P2
2024/01/31 00:02:19;;;;;;;39.20;22.50;;;;;;;-1.40;100.00;100485.52;109504;1251;65027;-76
2024/01/31 00:04:45;;;;;;;35.80;23.20;;;;;;;-1.53;100.00;100483.70;109473;1251;59800;-75
2024/01/31 00:07:12;;;;;;;48.10;29.60;;;;;;;-1.69;100.00;100480.64;109463;1251;59762;-76
2024/01/31 00:09:40;;;;;;;47.70;30.20;;;;;;;-1.84;100.00;100483.32;109227;1251;67760;-75
2024/01/31 00:12:06;;;;;;;53.50;33.30;;;;;;;-2.00;100.00;100492.23;109473;1251;61435;-76
2024/01/31 00:14:35;;;;;;;48.80;31.70;;;;;;;-2.11;100.00;100492.84;109201;1252;65031;-75
2024/01/31 00:17:01;;;;;;;47.90;30.70;;;;;;;-2.18;100.00;100497.85;109447;1251;59802;-76
2024/01/31 00:19:28;;;;;;;46.20;31.20;;;;;;;-2.21;100.00;100497.65;109404;1253;59845;-75
2024/01/31 00:21:54;;;;;;;45.80;29.90;;;;;;;-2.24;100.00;100495.54;109497;1251;68044;-77
2024/01/31 00:24:21;;;;;;;48.40;30.60;;;;;;;-2.24;100.00;100498.66;109492;1251;61096;-75
2024/01/31 00:26:47;;;;;;;48.20;31.60;;;;;;;-2.22;100.00;100500.58;109431;1251;65220;-75
2024/01/31 00:29:14;;;;;;;50.00;34.10;;;;;;;-2.23;100.00;100500.77;109435;1252;60064;-75
2024/01/31 00:31:41;;;;;;;54.10;35.50;;;;;;;-2.24;100.00;100502.14;109491;1251;59834;-76
2024/01/31 00:34:07;;;;;;;51.40;33.90;;;;;;;-2.25;100.00;100501.78;109449;1251;67980;-76
2024/01/31 00:36:34;;;;;;;53.20;34.30;;;;;;;-2.27;100.00;100501.42;109285;1251;59888;-76
2024/01/31 00:39:00;;;;;;;53.10;32.50;;;;;;;-2.30;100.00;100497.73;109447;1251;63808;-76
2024/01/31 00:41:27;;;;;;;54.00;35.00;;;;;;;-2.36;100.00;100498.90;109221;1251;60105;-76
2024/01/31 00:43:54;;;;;;;52.60;33.90;;;;;;;-2.41;100.00;100498.15;109420;1257;60119;-76
2024/01/31 00:46:21;;;;;;;52.00;33.00;;;;;;;-2.48;100.00;100497.73;109475;1251;66732;-76
2024/01/31 00:48:47;;;;;;;53.50;33.10;;;;;;;-2.53;100.00;100499.77;109486;1251;60196;-76
2024/01/31 00:51:14;;;;;;;52.60;33.20;;;;;;;-2.57;100.00;100500.42;109468;1255;65021;-74
2024/01/31 00:53:41;;;;;;;52.40;31.50;;;;;;;-2.59;100.00;100498.13;109412;1251;59757;-76
2024/01/31 00:56:10;;;;;;;53.90;33.80;;;;;;;-2.62;100.00;100500.36;109466;1251;59826;-77
2024/01/31 00:58:37;;;;;;;46.30;30.60;;;;;;;-2.65;100.00;100499.45;109166;1253;67998;-77
2024/01/31 01:01:04;;;;;;;58.00;36.60;;;;;;;-2.69;100.00;100500.98;109458;1251;61440;-76
2024/01/31 01:03:31;;;;;;;50.10;34.60;;;;;;;-2.72;100.00;100502.01;109223;1251;63709;-77
2024/01/31 01:05:58;;;;;;;50.20;33.50;;;;;;;-2.74;100.00;100500.23;109451;1251;60000;-76
2024/01/31 01:08:24;;;;;;;49.20;32.50;;;;;;;-2.76;100.00;100495.52;109439;1251;59935;-76
2024/01/31 01:10:51;;;;;;;55.50;33.30;;;;;;;-2.77;100.00;100496.73;109448;1253;66476;-76
2024/01/31 01:13:18;;;;;;;51.80;33.50;;;;;;;-2.79;100.00;100494.09;109494;1251;59808;-76
2024/01/31 01:15:45;;;;;;;51.10;33.00;;;;;;;-2.81;100.00;100491.11;109511;1251;64116;-76
2024/01/31 01:18:11;;;;;;;50.60;32.70;;;;;;;-2.84;100.00;100489.33;109484;1251;59812;-77
2024/01/31 01:20:38;;;;;;;48.10;32.40;;;;;;;-2.87;100.00;100490.36;109510;1255;59942;-76
2024/01/31 01:23:06;;;;;;;49.70;33.20;;;;;;;-2.91;100.00;100491.88;109494;1251;66841;-76
2024/01/31 01:25:33;;;;;;;49.30;31.00;;;;;;;-2.95;100.00;100493.56;109363;1253;60157;-76
2024/01/31 01:27:59;;;;;;;44.40;31.70;;;;;;;-2.99;100.00;100494.02;108455;1252;1002432;-76
2024/01/31 01:30:26;;;;;;;49.30;32.10;;;;;;;-3.04;100.00;100493.80;109487;1253;59821;-78
2024/01/31 01:32:53;;;;;;;53.50;30.90;;;;;;;-3.06;100.00;100489.77;109506;1251;59811;-75
2024/01/31 01:35:19;;;;;;;44.50;30.60;;;;;;;-3.10;100.00;100492.69;109510;1251;67860;-77
2024/01/31 01:37:46;;;;;;;46.90;31.10;;;;;;;-3.15;100.00;100488.98;109495;1253;61228;-76
2024/01/31 01:40:12;;;;;;;49.20;32.00;;;;;;;-3.19;100.00;100488.92;109244;1251;64562;-76
2024/01/31 01:42:39;;;;;;;49.70;32.50;;;;;;;-3.23;100.00;100493.04;109479;1251;59915;-77
2024/01/31 01:45:07;;;;;;;49.90;32.00;;;;;;;-3.28;100.00;100495.75;109494;1251;59842;-75
2024/01/31 01:47:42;;;;;;;49.00;31.80;;;;;;;-3.31;100.00;100493.64;109272;1251;66636;-76
2024/01/31 01:50:10;;;;;;;54.50;34.10;;;;;;;-3.32;100.00;100490.15;109177;1255;61151;-76
2024/01/31 01:52:37;;;;;;;46.10;32.20;;;;;;;-3.34;100.00;100488.91;108379;1256;1002292;-77
2024/01/31 01:55:04;;;;;;;48.10;31.50;;;;;;;-3.37;100.00;100486.09;109126;1257;59845;-77
2024/01/31 01:57:32;;;;;;;51.30;31.80;;;;;;;-3.39;100.00;100483.44;109157;1256;60198;-77
2024/01/31 01:59:59;;;;;;;43.70;30.70;;;;;;;-3.41;100.00;100482.03;109077;1256;66877;-76
2024/01/31 02:02:27;;;;;;;55.90;37.10;;;;;;;-3.45;100.00;100483.55;109070;1256;60821;-79
2024/01/31 02:04:54;;;;;;;54.40;36.20;;;;;;;-3.47;100.00;100481.08;109183;1257;65116;-76
2024/01/31 02:07:26;;;;;;;53.30;34.60;;;;;;;-3.48;100.00;100474.10;109179;1255;60026;-75
2024/01/31 02:09:53;;;;;;;57.50;34.40;;;;;;;-3.48;100.00;100477.23;109143;1256;59949;-77
2024/01/31 02:12:20;;;;;;;53.50;34.30;;;;;;;-3.49;100.00;100478.60;109124;1256;67806;-77
2024/01/31 02:14:52;;;;;;;53.80;34.90;;;;;;;-3.51;100.00;100482.06;109179;1256;59858;-77
2024/01/31 02:17:18;;;;;;;49.80;33.50;;;;;;;-3.52;100.00;100485.00;109144;1257;63716;-75
2024/01/31 02:19:48;;;;;;;48.60;33.30;;;;;;;-3.53;100.00;100481.70;109136;1256;60228;-77
2024/01/31 02:22:19;;;;;;;51.30;34.00;;;;;;;-3.54;100.00;100481.84;109472;1251;60684;-75
2024/01/31 02:24:46;;;;;;;51.10;32.30;;;;;;;-3.57;100.00;100481.46;109504;1251;66513;-77
2024/01/31 02:27:12;;;;;;;49.60;30.60;;;;;;;-3.60;100.00;100479.50;109454;1251;60564;-78
2024/01/31 02:29:39;;;;;;;48.00;31.40;;;;;;;-3.65;100.00;100481.87;109440;1251;62781;-76
2024/01/31 02:32:06;;;;;;;51.10;29.30;;;;;;;-3.69;100.00;100483.55;109461;1251;60151;-76
2024/01/31 02:34:33;;;;;;;42.50;28.10;;;;;;;-3.74;100.00;100478.44;109237;1251;59774;-75
2024/01/31 02:36:59;;;;;;;46.70;31.90;;;;;;;-3.80;100.00;100476.45;109482;1251;67992;-76
2024/01/31 02:39:26;;;;;;;48.40;31.60;;;;;;;-3.80;100.00;100477.12;109474;1251;61108;-77
2024/01/31 02:41:53;;;;;;;43.70;28.10;;;;;;;-3.79;100.00;100471.75;109227;1251;64216;-77
2024/01/31 02:44:20;;;;;;;39.00;27.50;;;;;;;-3.79;100.00;100470.04;109475;1251;59815;-77
2024/01/31 02:46:47;;;;;;;45.90;28.50;;;;;;;-3.81;100.00;100467.39;109433;1251;59922;-75
2024/01/31 02:49:13;;;;;;;45.30;30.20;;;;;;;-3.84;100.00;100473.61;109510;1251;67908;-76
2024/01/31 02:51:40;;;;;;;55.30;35.40;;;;;;;-3.84;100.00;100477.60;109495;1251;61631;-77
2024/01/31 02:54:07;;;;;;;50.90;35.20;;;;;;;-3.81;100.00;100475.39;109487;1251;63822;-78
2024/01/31 02:56:33;;;;;;;53.00;36.30;;;;;;;-3.76;100.00;100478.40;108710;1251;1002561;-76
2024/01/31 02:59:00;;;;;;;52.00;34.90;;;;;;;-3.71;100.00;100483.17;108778;1251;1002458;-76
2024/01/31 03:01:26;;;;;;;56.60;37.20;;;;;;;-3.67;100.00;100487.05;109488;1251;67632;-79
2024/01/31 03:03:53;;;;;;;52.70;35.10;;;;;;;-3.62;100.00;100489.20;108688;1251;1002961;-76
2024/01/31 03:06:19;;;;;;;52.70;36.10;;;;;;;-3.60;100.00;100484.55;109491;1251;64129;-77
2024/01/31 03:08:46;;;;;;;51.60;37.10;;;;;;;-3.60;100.00;100481.59;109452;1251;59718;-75
2024/01/31 03:11:12;;;;;;;53.10;36.70;;;;;;;-3.61;100.00;100486.61;109224;1251;59916;-78
2024/01/31 03:13:39;;;;;;;54.20;36.60;;;;;;;-3.60;100.00;100488.36;109422;1251;67877;-77
2024/01/31 03:16:05;;;;;;;53.50;35.90;;;;;;;-3.61;100.00;100484.19;109461;1251;60013;-76
2024/01/31 03:18:32;;;;;;;51.10;36.30;;;;;;;-3.58;100.00;100488.56;109434;1251;64067;-77
2024/01/31 03:20:59;;;;;;;52.80;34.40;;;;;;;-3.56;100.00;100485.81;109422;1251;59952;-75
2024/01/31 03:23:25;;;;;;;48.50;34.20;;;;;;;-3.55;100.00;100482.17;109488;1252;60199;-77
2024/01/31 03:25:52;;;;;;;53.30;35.70;;;;;;;-3.57;100.00;100488.41;109471;1251;76382;-78
2024/01/31 03:28:20;;;;;;;49.80;34.10;;;;;;;-3.60;100.00;100489.06;109450;1251;61060;-77
2024/01/31 03:30:46;;;;;;;51.00;33.80;;;;;;;-3.62;100.00;100486.95;109254;1251;63989;-75
2024/01/31 03:33:13;;;;;;;51.80;34.00;;;;;;;-3.65;100.00;100492.46;109455;1251;59784;-78
2024/01/31 03:35:40;;;;;;;58.70;38.60;;;;;;;-3.67;100.00;100488.96;109470;1251;59641;-75
2024/01/31 03:38:08;;;;;;;54.30;36.30;;;;;;;-3.65;100.00;100489.70;109261;1251;66876;-77
2024/01/31 03:40:36;;;;;;;59.00;40.10;;;;;;;-3.62;100.00;100484.69;109499;1251;61120;-76
2024/01/31 03:43:03;;;;;;;54.30;38.50;;;;;;;-3.59;100.00;100485.95;108645;1251;1002861;-75
2024/01/31 03:45:30;;;;;;;55.00;36.40;;;;;;;-3.57;100.00;100486.51;109419;1251;60283;-76
2024/01/31 03:47:56;;;;;;;51.70;36.40;;;;;;;-3.59;100.00;100486.98;109474;1251;59815;-75
2024/01/31 03:50:23;;;;;;;57.10;37.40;;;;;;;-3.60;100.00;100482.63;109475;1254;60313;-77
2024/01/31 03:52:50;;;;;;;53.90;35.10;;;;;;;-3.61;100.00;100484.34;109486;1251;59738;-77
2024/01/31 03:55:16;;;;;;;54.90;37.30;;;;;;;-3.62;100.00;100485.73;109465;1251;65116;-77
2024/01/31 03:57:43;;;;;;;60.30;38.50;;;;;;;-3.63;100.00;100487.45;109257;1251;59989;-76
2024/01/31 04:00:10;;;;;;;54.20;37.20;;;;;;;-3.64;100.00;100486.23;109449;1251;59907;-77
2024/01/31 04:02:37;;;;;;;60.00;40.00;;;;;;;-3.63;100.00;100490.41;109434;1251;67524;-77
2024/01/31 04:05:04;;;;;;;65.40;44.30;;;;;;;-3.62;100.00;100493.38;109489;1251;61057;-75
2024/01/31 04:07:31;;;;;;;55.00;40.20;;;;;;;-3.60;100.00;100484.55;108715;1251;1002325;-76
2024/01/31 04:09:57;;;;;;;52.40;37.10;;;;;;;-3.59;100.00;100482.83;108719;1251;1002221;-76
2024/01/31 04:12:24;;;;;;;52.90;38.30;;;;;;;-3.57;100.00;100480.77;109417;1251;59718;-75
2024/01/31 04:14:50;;;;;;;55.50;37.40;;;;;;;-3.56;100.00;100477.64;109461;1251;59786;-76
2024/01/31 04:17:17;;;;;;;53.40;37.00;;;;;;;-3.55;100.00;100478.19;109258;1255;59818;-76
2024/01/31 04:19:48;;;;;;;55.10;37.50;;;;;;;-3.54;100.00;100475.07;109473;1251;64108;-75
2024/01/31 04:22:18;;;;;;;52.10;35.90;;;;;;;-3.54;100.00;100481.33;109472;1251;59791;-77
2024/01/31 04:24:45;;;;;;;51.20;35.60;;;;;;;-3.53;100.00;100483.78;109507;1251;59895;-75
2024/01/31 04:27:12;;;;;;;59.30;38.50;;;;;;;-3.51;100.00;100486.25;109509;1251;67829;-76
2024/01/31 04:29:39;;;;;;;53.70;37.70;;;;;;;-3.46;100.00;100490.30;109456;1251;68150;-77
2024/01/31 04:32:06;;;;;;;53.00;37.90;;;;;;;-3.41;100.00;100493.84;109370;1251;65033;-76
2024/01/31 04:34:34;;;;;;;51.80;36.90;;;;;;;-3.36;100.00;100491.14;109458;1251;60115;-76
2024/01/31 04:37:01;;;;;;;53.10;36.60;;;;;;;-3.31;100.00;100488.94;109490;1251;59855;-76
2024/01/31 04:39:27;;;;;;;51.60;34.40;;;;;;;-3.26;100.00;100487.27;109482;1251;67881;-76
2024/01/31 04:41:54;;;;;;;48.90;32.80;;;;;;;-3.23;100.00;100497.02;109451;1251;61267;-77
2024/01/31 04:44:21;;;;;;;51.60;36.50;;;;;;;-3.20;100.00;100492.02;109364;1251;65057;-75
2024/01/31 04:46:47;;;;;;;46.20;33.00;;;;;;;-3.17;100.00;100490.34;109486;1251;60065;-77
2024/01/31 04:49:14;;;;;;;49.00;35.70;;;;;;;-3.12;100.00;100491.98;109421;1251;59779;-77
2024/01/31 04:51:42;;;;;;;50.90;34.70;;;;;;;-3.06;100.00;100493.26;109400;1251;67801;-76
2024/01/31 04:54:08;;;;;;;52.90;35.20;;;;;;;-3.02;100.00;100486.69;109427;1251;61172;-76
2024/01/31 04:56:36;;;;;;;49.90;33.80;;;;;;;-2.98;100.00;100487.61;109422;1251;64082;-76
2024/01/31 04:59:02;;;;;;;50.40;34.70;;;;;;;-2.94;100.00;100491.67;108622;1251;1002368;-77
2024/01/31 05:01:29;;;;;;;47.40;33.60;;;;;;;-2.90;100.00;100489.27;109421;1251;59854;-76
2024/01/31 05:03:58;;;;;;;46.60;33.20;;;;;;;-2.85;100.00;100492.80;109473;1251;67799;-76
2024/01/31 05:06:25;;;;;;;47.60;33.60;;;;;;;-2.79;100.00;100495.84;109496;1251;60944;-77
2024/01/31 05:08:52;;;;;;;49.20;36.80;;;;;;;-2.72;100.00;100494.35;109490;1251;63991;-77
2024/01/31 05:11:19;;;;;;;48.10;33.60;;;;;;;-2.66;100.00;100491.81;109462;1251;59898;-76
2024/01/31 05:13:45;;;;;;;51.50;37.20;;;;;;;-2.59;100.00;100489.45;109464;1251;60015;-77
2024/01/31 05:16:12;;;;;;;49.00;35.70;;;;;;;-2.54;100.00;100492.27;108696;1251;1002500;-76
2024/01/31 05:18:39;;;;;;;51.00;32.60;;;;;;;-2.50;100.00;100491.98;108725;1251;1002813;-77
2024/01/31 05:21:08;;;;;;;45.40;32.80;;;;;;;-2.45;100.00;100489.75;109231;1251;65042;-76
2024/01/31 05:23:34;;;;;;;47.90;34.70;;;;;;;-2.44;100.00;100492.55;109214;1251;59878;-77
2024/01/31 05:26:07;;;;;;;50.00;34.10;;;;;;;-2.41;100.00;100493.61;109348;1251;59893;-78
2024/01/31 05:28:34;;;;;;;44.60;32.30;;;;;;;-2.38;100.00;100494.52;109431;1251;67839;-77
2024/01/31 05:31:00;;;;;;;39.00;29.00;;;;;;;-2.36;100.00;100494.38;109474;1251;60144;-76
2024/01/31 05:33:27;;;;;;;36.70;25.60;;;;;;;-2.30;100.00;100491.46;109314;1251;64787;-76
2024/01/31 05:35:53;;;;;;;33.60;23.80;;;;;;;-2.23;100.00;100487.01;109460;1251;59766;-75
2024/01/31 05:38:20;;;;;;;32.70;23.20;;;;;;;-2.14;100.00;100487.26;109461;1251;59662;-76
2024/01/31 05:40:47;;;;;;;31.30;22.70;;;;;;;-2.05;100.00;100483.33;109465;1251;67786;-75
2024/01/31 05:43:13;;;;;;;29.40;21.50;;;;;;;-1.95;100.00;100479.58;109451;1251;61190;-75
2024/01/31 05:45:40;;;;;;;26.60;20.10;;;;;;;-1.84;100.00;100477.92;109433;1251;64626;-77
2024/01/31 05:48:07;;;;;;;30.00;22.10;;;;;;;-1.71;100.00;100478.88;108708;1251;1003010;-75
2024/01/31 05:50:34;;;;;;;28.20;20.90;;;;;;;-1.59;100.00;100478.26;109476;1251;59808;-76
2024/01/31 05:53:00;;;;;;;32.10;22.80;;;;;;;-1.52;100.00;100481.62;109463;1251;66527;-75
2024/01/31 05:55:27;;;;;;;31.50;22.30;;;;;;;-1.47;100.00;100483.38;109469;1251;60735;-75
2024/01/31 05:57:54;;;;;;;36.20;25.70;;;;;;;-1.43;100.00;100482.36;109458;1251;63835;-77
2024/01/31 06:00:21;;;;;;;32.40;24.20;;;;;;;-1.38;100.00;100485.70;109379;1251;59838;-76
2024/01/31 06:02:48;;;;;;;33.10;23.50;;;;;;;-1.34;100.00;100484.85;109475;1251;59884;-75
2024/01/31 06:05:14;;;;;;;32.20;23.80;;;;;;;-1.28;100.00;100487.50;109510;1251;67819;-76
2024/01/31 06:07:41;;;;;;;30.20;22.10;;;;;;;-1.23;100.00;100489.61;109483;1251;61074;-76
2024/01/31 06:10:09;;;;;;;30.90;22.60;;;;;;;-1.19;100.00;100488.23;109473;1251;64044;-75
2024/01/31 06:12:36;;;;;;;36.80;26.00;;;;;;;-1.14;100.00;100494.02;109447;1251;59794;-76
2024/01/31 06:15:03;;;;;;;47.90;35.00;;;;;;;-1.13;100.00;100496.64;109503;1251;59933;-77
2024/01/31 06:17:30;;;;;;;58.10;41.50;;;;;;;-1.15;100.00;100500.11;108399;1255;1002400;-74
2024/01/31 06:19:57;;;;;;;58.70;41.60;;;;;;;-1.15;100.00;100506.58;109171;1255;60815;-76
2024/01/31 06:22:23;;;;;;;71.60;46.80;;;;;;;-1.14;100.00;100513.72;109169;1255;65277;-75
2024/01/31 06:24:50;;;;;;;65.40;46.50;;;;;;;-1.14;100.00;100517.91;109190;1255;59897;-75
2024/01/31 06:27:17;;;;;;;61.00;43.90;;;;;;;-1.13;100.00;100523.85;109246;1255;59983;-76
2024/01/31 06:29:43;;;;;;;61.30;43.20;;;;;;;-1.11;100.00;100522.98;109155;1256;66842;-76
2024/01/31 06:32:10;;;;;;;67.90;47.90;;;;;;;-1.09;100.00;100519.15;109198;1255;59989;-76
2024/01/31 06:34:37;;;;;;;67.90;47.20;;;;;;;-1.07;100.00;100512.71;109201;1255;64145;-75
2024/01/31 06:37:03;;;;;;;65.20;45.20;;;;;;;-1.05;100.00;100514.64;109168;1256;60109;-76
2024/01/31 06:39:30;;;;;;;70.10;48.80;;;;;;;-1.03;100.00;100517.96;108981;1256;59888;-76
2024/01/31 06:41:56;;;;;;;63.60;45.40;;;;;;;-1.00;100.00;100519.91;109186;1255;68001;-75
2024/01/31 06:44:23;;;;;;;67.80;43.30;;;;;;;-0.98;100.00;100516.42;109180;1255;61043;-77
2024/01/31 06:46:50;;;;;;;58.50;41.60;;;;;;;-0.96;100.00;100522.35;109152;1255;64896;-75
2024/01/31 06:49:17;;;;;;;56.70;40.50;;;;;;;-0.94;100.00;100515.73;109361;1251;59766;-75
2024/01/31 06:51:43;;;;;;;60.60;41.00;;;;;;;-0.91;100.00;100508.25;109489;1251;60185;-76
2024/01/31 06:54:12;;;;;;;63.90;42.30;;;;;;;-0.89;100.00;100507.73;109340;1251;66671;-77
2024/01/31 06:56:38;;;;;;;66.50;41.80;;;;;;;-0.85;100.00;100516.48;109463;1251;60842;-76
2024/01/31 06:59:05;;;;;;;57.10;38.60;;;;;;;-0.78;100.00;100514.92;109476;1251;63975;-76
2024/01/31 07:01:31;;;;;;;58.40;37.90;;;;;;;-0.67;100.00;100518.80;109456;1253;59909;-75
2024/01/31 07:03:58;;;;;;;54.70;40.10;;;;;;;-0.56;100.00;100521.98;109432;1251;59821;-76
2024/01/31 07:06:25;;;;;;;48.10;37.10;;;;;;;-0.45;100.00;100522.88;109469;1251;66817;-76
2024/01/31 07:08:51;;;;;;;48.60;36.60;;;;;;;-0.34;100.00;100525.70;109494;1251;60534;-77
2024/01/31 07:11:18;;;;;;;52.70;38.40;;;;;;;-0.22;100.00;100526.05;109474;1251;65111;-76
2024/01/31 07:13:45;;;;;;;43.40;31.00;;;;;;;-0.10;100.00;100522.59;109450;1251;59764;-77
2024/01/31 07:16:11;;;;;;;38.50;30.10;;;;;;;0.05;100.00;100520.52;109385;1254;59813;-76
2024/01/31 07:18:42;;;;;;;41.10;31.60;;;;;;;0.20;100.00;100515.25;109458;1251;67000;-77
2024/01/31 07:21:23;;;;;;;32.30;23.90;;;;;;;0.34;100.00;100516.13;109460;1251;61000;-78
2024/01/31 07:23:49;;;;;;;33.00;25.80;;;;;;;0.48;100.00;100509.30;109469;1251;65438;-78
2024/01/31 07:26:29;;;;;;;29.10;21.50;;;;;;;0.61;100.00;100510.48;109439;1251;59897;-77
2024/01/31 07:28:56;;;;;;;26.50;21.10;;;;;;;0.77;100.00;100509.23;109452;1251;59771;-76
2024/01/31 07:31:22;;;;;;;28.20;20.00;;;;;;;0.90;100.00;100510.77;109422;1251;76904;-76
2024/01/31 07:33:49;;;;;;;23.70;18.90;;;;;;;1.01;100.00;100514.23;109490;1251;60192;-77
2024/01/31 07:36:16;;;;;;;25.10;17.70;;;;;;;1.12;100.00;100511.73;109443;1251;65150;-77
2024/01/31 07:38:43;;;;;;;23.70;18.60;;;;;;;1.22;100.00;100509.77;109463;1251;59785;-76
2024/01/31 07:41:10;;;;;;;27.20;18.80;;;;;;;1.31;100.00;100508.85;109381;1251;59785;-78
2024/01/31 07:43:37;;;;;;;26.80;19.20;;;;;;;1.38;100.00;100509.68;109461;1251;66905;-77
2024/01/31 07:46:04;;;;;;;25.30;17.70;;;;;;;1.45;100.00;100512.80;109462;1251;61369;-75
2024/01/31 07:48:31;;;;;;;24.80;18.20;;;;;;;1.50;100.00;100518.73;108699;1251;1003125;-77
2024/01/31 07:51:02;;;;;;;23.80;17.20;;;;;;;1.53;100.00;100522.04;109457;1251;60174;-77
2024/01/31 07:53:29;;;;;;;21.80;17.80;;;;;;;1.57;100.00;100524.30;109522;1251;59987;-76
2024/01/31 07:55:56;;;;;;;22.60;16.40;;;;;;;1.62;100.00;100525.14;109502;1251;76265;-76
2024/01/31 07:58:22;;;;;;;26.80;19.20;;;;;;;1.64;100.00;100525.48;109444;1251;61138;-76
2024/01/31 08:00:49;;;;;;;26.40;18.50;;;;;;;1.67;100.00;100524.06;109450;1251;64876;-76
2024/01/31 08:03:16;;;;;;;25.10;19.60;;;;;;;1.70;100.00;100527.02;109480;1251;59831;-75
2024/01/31 08:05:42;;;;;;;24.70;18.50;;;;;;;1.74;100.00;100528.77;109475;1251;59692;-76
2024/01/31 08:08:09;;;;;;;27.80;19.70;;;;;;;1.77;100.00;100530.30;109483;1251;66783;-77
2024/01/31 08:10:36;;;;;;;27.90;20.80;;;;;;;1.81;100.00;100526.27;109460;1252;59860;-76
2024/01/31 08:13:04;;;;;;;26.10;19.80;;;;;;;1.86;100.00;100526.92;109468;1251;64997;-77
2024/01/31 08:15:31;;;;;;;24.50;18.90;;;;;;;1.91;100.00;100529.52;109137;1251;59861;-76
2024/01/31 08:17:58;;;;;;;28.00;19.10;;;;;;;1.98;100.00;100532.10;109465;1251;59823;-76
2024/01/31 08:20:24;;;;;;;25.30;19.40;;;;;;;2.06;100.00;100537.13;109529;1251;68075;-77
2024/01/31 08:22:51;;;;;;;24.60;19.30;;;;;;;2.13;100.00;100534.78;109449;1251;60037;-77
2024/01/31 08:25:18;;;;;;;27.40;20.20;;;;;;;2.19;100.00;100535.27;109475;1251;65402;-77
2024/01/31 08:27:48;;;;;;;27.00;20.00;;;;;;;2.24;100.00;100527.15;109293;1251;59858;-77
2024/01/31 08:30:16;;;;;;;28.40;21.30;;;;;;;2.28;100.00;100525.89;109448;1251;59678;-77
2024/01/31 08:32:44;;;;;;;27.50;21.10;;;;;;;2.33;100.00;100527.45;109447;1251;67824;-77
2024/01/31 08:35:12;;;;;;;26.90;19.40;;;;;;;2.37;100.00;100529.85;109505;1251;61351;-77
2024/01/31 08:37:39;;;;;;;26.20;20.10;;;;;;;2.45;100.00;100531.72;109527;1251;64319;-79
2024/01/31 08:40:08;;;;;;;30.90;19.30;;;;;;;2.53;100.00;100526.02;109465;1251;59857;-76
2024/01/31 08:42:36;;;;;;;27.90;21.20;;;;;;;2.59;100.00;100528.77;109380;1251;59844;-77
2024/01/31 08:45:03;;;;;;;22.90;18.90;;;;;;;2.63;100.00;100531.89;109476;1251;66785;-76
2024/01/31 08:47:30;;;;;;;24.40;19.70;;;;;;;2.66;100.00;100532.05;109515;1251;60973;-76
2024/01/31 08:49:57;;;;;;;26.50;18.60;;;;;;;2.69;100.00;100532.89;109455;1251;64107;-77
2024/01/31 08:52:23;;;;;;;25.10;19.90;;;;;;;2.72;100.00;100532.52;109457;1251;59693;-78
2024/01/31 08:54:50;;;;;;;25.80;19.20;;;;;;;2.72;100.00;100531.45;109490;1251;59985;-76
2024/01/31 08:57:17;;;;;;;28.20;19.70;;;;;;;2.71;100.00;100532.34;109471;1251;67930;-76
2024/01/31 08:59:43;;;;;;;24.50;20.20;;;;;;;2.71;100.00;100530.05;109462;1251;60030;-77
2024/01/31 09:02:10;;;;;;;24.00;18.30;;;;;;;2.72;100.00;100529.17;109426;1251;65194;-77
2024/01/31 09:04:37;;;;;;;29.40;21.00;;;;;;;2.75;100.00;100524.39;109468;1251;59805;-77
2024/01/31 09:07:03;;;;;;;26.40;20.20;;;;;;;2.80;100.00;100525.39;109466;1251;59637;-76
2024/01/31 09:09:31;;;;;;;27.80;20.80;;;;;;;2.86;100.00;100525.69;109483;1251;67936;-77
2024/01/31 09:11:58;;;;;;;27.20;20.60;;;;;;;2.94;100.00;100525.95;109481;1251;61038;-76
2024/01/31 09:14:24;;;;;;;27.80;19.20;;;;;;;3.01;100.00;100524.46;109463;1251;64225;-76
2024/01/31 09:16:51;;;;;;;23.50;19.60;;;;;;;3.08;100.00;100525.62;109477;1251;59691;-77
2024/01/31 09:19:17;;;;;;;27.10;20.60;;;;;;;3.11;100.00;100528.56;109370;1251;59726;-76
2024/01/31 09:21:44;;;;;;;29.20;20.20;;;;;;;3.13;100.00;100526.97;109150;1251;67027;-77
2024/01/31 09:24:10;;;;;;;26.10;21.00;;;;;;;3.19;100.00;100528.12;109482;1251;60462;-75
2024/01/31 09:26:37;;;;;;;26.60;20.70;;;;;;;3.24;100.00;100527.72;109465;1251;65099;-75
2024/01/31 09:29:03;;;;;;;24.60;19.30;;;;;;;3.31;100.00;100528.85;109475;1251;59804;-77
2024/01/31 09:31:30;;;;;;;26.50;20.60;;;;;;;3.38;100.00;100529.80;109495;1251;59824;-77
2024/01/31 09:33:57;;;;;;;29.40;21.30;;;;;;;3.41;100.00;100529.59;109484;1251;67538;-77
2024/01/31 09:36:23;;;;;;;23.90;20.20;;;;;;;3.42;100.00;100529.42;108694;1251;1002633;-77
2024/01/31 09:38:50;;;;;;;29.60;20.70;;;;;;;3.41;100.00;100530.83;109327;1251;64070;-76
2024/01/31 09:41:17;;;;;;;26.30;21.00;;;;;;;3.39;100.00;100531.92;109466;1251;59878;-77
2024/01/31 09:43:45;;;;;;;26.10;19.50;;;;;;;3.37;100.00;100532.81;109460;1252;59669;-77
2024/01/31 09:46:12;;;;;;;26.20;19.60;;;;;;;3.41;100.00;100530.13;109507;1251;67870;-77
2024/01/31 09:48:39;;;;;;;26.30;20.50;;;;;;;3.48;100.00;100529.51;109494;1252;60803;-77
2024/01/31 09:51:07;;;;;;;26.70;20.50;;;;;;;3.54;100.00;100531.89;109393;1251;65380;-76
2024/01/31 09:53:38;;;;;;;26.80;20.80;;;;;;;3.60;100.00;100533.91;109136;1251;59777;-77
2024/01/31 09:56:06;;;;;;;26.60;20.80;;;;;;;3.67;100.00;100533.65;109495;1251;59696;-78
2024/01/31 09:58:33;;;;;;;25.40;19.40;;;;;;;3.73;100.00;100532.50;109476;1251;67531;-78
2024/01/31 10:01:02;;;;;;;25.00;20.20;;;;;;;3.79;100.00;100530.49;108180;1251;1616966;-77
2024/01/31 10:03:29;;;;;;;27.00;21.10;;;;;;;3.83;100.00;100532.89;109494;1251;64015;-78
2024/01/31 10:05:56;;;;;;;31.00;22.00;;;;;;;3.84;100.00;100532.86;109468;1251;60002;-76
2024/01/31 10:08:28;;;;;;;28.20;20.70;;;;;;;3.84;100.00;100531.11;109396;1251;59868;-77
2024/01/31 10:10:55;;;;;;;27.90;21.70;;;;;;;3.84;100.00;100530.41;109536;1251;74082;-78
2024/01/31 10:13:22;;;;;;;30.60;21.30;;;;;;;3.82;100.00;100529.40;109524;1251;60993;-77
2024/01/31 10:15:48;;;;;;;30.70;23.60;;;;;;;3.79;100.00;100520.81;109495;1251;65162;-78
2024/01/31 10:18:15;;;;;;;31.50;23.70;;;;;;;3.79;100.00;100521.17;109458;1251;60096;-75
2024/01/31 10:20:44;;;;;;;30.30;22.50;;;;;;;3.79;100.00;100525.20;109469;1251;59833;-76
2024/01/31 10:23:13;;;;;;;29.40;22.50;;;;;;;3.82;100.00;100524.11;109466;1251;65571;-77
2024/01/31 10:25:40;;;;;;;28.50;23.90;;;;;;;3.84;100.00;100523.38;109522;1251;61295;-79
2024/01/31 10:28:08;;;;;;;30.60;24.00;;;;;;;3.88;100.00;100522.27;109497;1251;65042;-76
2024/01/31 10:30:40;;;;;;;29.30;22.40;;;;;;;3.94;100.00;100522.36;109498;1251;59791;-78
2024/01/31 10:33:08;;;;;;;28.50;22.80;;;;;;;3.99;100.00;100518.93;109480;1251;59866;-78
2024/01/31 10:35:35;;;;;;;28.30;21.20;;;;;;;4.02;100.00;100512.55;109474;1251;66789;-77
2024/01/31 10:38:02;;;;;;;30.90;23.30;;;;;;;4.03;100.00;100510.94;109504;1251;61094;-76
2024/01/31 10:40:29;;;;;;;27.30;22.00;;;;;;;4.05;100.00;100512.50;109498;1251;65138;-76
2024/01/31 10:42:57;;;;;;;30.50;23.20;;;;;;;4.09;100.00;100515.27;109375;1251;59750;-76
2024/01/31 10:45:25;;;;;;;31.50;24.70;;;;;;;4.11;100.00;100524.73;109465;1251;59992;-77
2024/01/31 10:47:52;;;;;;;30.70;23.50;;;;;;;4.09;100.00;100527.92;109311;1251;67582;-77
2024/01/31 10:50:19;;;;;;;31.50;24.50;;;;;;;4.08;100.00;100523.55;109497;1251;61111;-76
2024/01/31 10:52:47;;;;;;;34.30;25.40;;;;;;;4.04;100.00;100519.90;109472;1251;64019;-77
2024/01/31 10:55:14;;;;;;;33.70;25.90;;;;;;;4.00;100.00;100526.12;109457;1251;59749;-76